createdAt,value
2019-03-30T00:01:08.285Z,66.97
2019-03-30T00:03:40.172Z,66.42
2019-03-30T00:06:12.029Z,64.05
2019-03-30T00:08:43.861Z,65.72
2019-03-30T00:11:15.849Z,62.95
2019-03-30T00:13:47.702Z,60.12
2019-03-30T00:16:20.977Z,69.72
2019-03-30T00:18:54.566Z,61.53
2019-03-30T00:21:26.484Z,64.37
2019-03-30T00:23:59.456Z,64.67
2019-03-30T00:26:33.421Z,65.03
2019-03-30T00:29:06.040Z,59.50
2019-03-30T00:31:40.483Z,64.72
2019-03-30T00:34:12.876Z,58.30
2019-03-30T00:36:47.538Z,62.93
2019-03-30T00:39:19.492Z,58.83
2019-03-30T00:41:52.918Z,67.85
2019-03-30T00:44:25.923Z,66.75
2019-03-30T00:46:58.210Z,65.57
2019-03-30T00:49:31.140Z,64.80
2019-03-30T00:52:03.369Z,66.33
2019-03-30T00:54:35.513Z,69.03
2019-03-30T00:57:07.430Z,68.72
2019-03-30T00:59:40.191Z,68.15
2019-03-30T01:02:12.049Z,66.33
2019-03-30T01:04:44.013Z,66.60
2019-03-30T01:07:17.700Z,69.12
2019-03-30T01:09:49.473Z,72.10
2019-03-30T01:12:22.205Z,66.53
2019-03-30T01:14:54.239Z,77.50
2019-03-30T01:17:26.159Z,67.95
2019-03-30T01:20:03.193Z,67.65
2019-03-30T01:22:33.912Z,66.67
2019-03-30T01:25:07.494Z,68.40
2019-03-30T01:27:39.212Z,66.97
2019-03-30T01:30:22.605Z,66.35
2019-03-30T01:32:45.102Z,62.38
2019-03-30T01:35:17.094Z,67.80
2019-03-30T01:37:49.198Z,62.85
2019-03-30T01:40:21.022Z,66.47
2019-03-30T01:42:53.870Z,63.78
2019-03-30T01:45:25.729Z,65.05
2019-03-30T01:47:57.637Z,64.25
2019-03-30T01:50:29.492Z,67.00
2019-03-30T01:53:02.755Z,62.70
2019-03-30T01:55:34.515Z,61.00
2019-03-30T01:58:06.325Z,64.70
2019-03-30T02:00:38.567Z,68.60
2019-03-30T02:03:10.795Z,67.50
2019-03-30T02:05:42.692Z,70.67
2019-03-30T02:08:14.520Z,68.25
2019-03-30T02:10:46.681Z,66.82
2019-03-30T02:13:18.481Z,71.05
2019-03-30T02:15:50.722Z,68.33
2019-03-30T02:18:22.818Z,70.62
2019-03-30T02:20:54.571Z,66.07
2019-03-30T02:23:26.391Z,64.60
2019-03-30T02:25:58.272Z,68.28
2019-03-30T02:28:31.178Z,62.45
2019-03-30T02:31:02.930Z,62.88
2019-03-30T02:33:34.872Z,61.63
2019-03-30T02:36:07.351Z,58.10
2019-03-30T02:38:39.089Z,56.98
2019-03-30T02:41:10.841Z,55.88
2019-03-30T02:43:42.546Z,56.50
2019-03-30T02:46:14.476Z,55.23
2019-03-30T02:48:46.720Z,57.13
2019-03-30T02:51:18.638Z,60.23
2019-03-30T02:53:50.434Z,64.50
2019-03-30T02:56:22.686Z,56.25
2019-03-30T02:58:54.591Z,56.00
2019-03-30T03:01:27.283Z,57.90
2019-03-30T03:03:59.107Z,54.77
2019-03-30T03:06:30.956Z,55.03
2019-03-30T03:09:03.937Z,55.60
2019-03-30T03:11:35.744Z,55.12
2019-03-30T03:14:07.525Z,53.15
2019-03-30T03:16:39.391Z,55.75
2019-03-30T03:19:11.188Z,54.05
2019-03-30T03:21:43.238Z,55.15
2019-03-30T03:24:15.132Z,50.63
2019-03-30T03:26:46.824Z,55.40
2019-03-30T03:29:18.923Z,54.20
2019-03-30T03:31:51.604Z,51.25
2019-03-30T03:34:23.396Z,52.35
2019-03-30T03:36:55.150Z,39.90
2019-03-30T03:39:26.929Z,53.73
2019-03-30T03:41:58.698Z,51.18
2019-03-30T03:44:30.459Z,49.10
2019-03-30T03:47:02.582Z,49.42
2019-03-30T03:49:34.273Z,47.88
2019-03-30T03:52:08.713Z,52.33
2019-03-30T03:54:41.633Z,43.30
2019-03-30T03:57:16.749Z,48.70
2019-03-30T03:59:51.951Z,53.42
2019-03-30T04:02:26.030Z,49.00
2019-03-30T04:05:00.506Z,48.73
2019-03-30T04:07:34.575Z,48.83
2019-03-30T04:10:07.139Z,52.35
2019-03-30T04:12:41.621Z,55.17
2019-03-30T04:15:24.278Z,55.28
2019-03-30T04:17:57.019Z,59.85
2019-03-30T04:20:28.766Z,57.88
2019-03-30T04:23:00.432Z,57.03
2019-03-30T04:25:32.231Z,60.55
2019-03-30T04:28:03.980Z,54.65
2019-03-30T04:30:35.753Z,59.83
2019-03-30T04:33:07.435Z,57.98
2019-03-30T04:35:39.292Z,61.55
2019-03-30T04:38:14.214Z,61.48
2019-03-30T04:40:44.791Z,63.35
2019-03-30T04:43:17.563Z,59.27
2019-03-30T04:45:49.361Z,64.45
2019-03-30T04:48:21.146Z,61.77
2019-03-30T04:50:52.977Z,60.43
2019-03-30T04:53:24.773Z,62.53
2019-03-30T04:55:56.468Z,64.27
2019-03-30T04:58:28.305Z,65.32
2019-03-30T05:01:00.069Z,64.05
2019-03-30T05:03:31.925Z,64.17
2019-03-30T05:06:03.600Z,62.73
2019-03-30T05:08:35.485Z,62.98
2019-03-30T05:11:07.440Z,66.33
2019-03-30T05:13:39.878Z,54.45
2019-03-30T05:16:12.694Z,65.27
2019-03-30T05:18:44.496Z,66.22
2019-03-30T05:21:16.282Z,63.17
2019-03-30T05:23:48.003Z,64.60
2019-03-30T05:26:21.877Z,60.35
2019-03-30T05:28:53.637Z,65.32
2019-03-30T05:31:29.291Z,58.80
2019-03-30T05:34:01.187Z,49.05
2019-03-30T05:36:33.110Z,62.10
2019-03-30T05:39:10.150Z,56.88
2019-03-30T05:41:42.066Z,54.33
2019-03-30T05:44:14.932Z,58.87
2019-03-30T05:46:48.188Z,57.05
2019-03-30T05:49:19.921Z,55.55
2019-03-30T05:51:52.117Z,57.65
2019-03-30T05:54:23.833Z,60.65
2019-03-30T05:56:55.591Z,56.58
2019-03-30T05:59:27.460Z,53.60
2019-03-30T06:01:59.549Z,53.05
2019-03-30T06:04:31.305Z,52.80
2019-03-30T06:07:03.039Z,51.25
2019-03-30T06:09:35.056Z,53.78
2019-03-30T06:12:07.276Z,52.65
2019-03-30T06:14:39.088Z,52.80
2019-03-30T06:17:10.931Z,49.40
2019-03-30T06:19:42.809Z,36.35
2019-03-30T06:22:14.670Z,52.23
2019-03-30T06:24:47.087Z,46.75
2019-03-30T06:27:18.951Z,52.27
2019-03-30T06:30:15.634Z,51.00
2019-03-30T06:32:47.616Z,50.28
2019-03-30T06:35:19.469Z,50.45
2019-03-30T06:37:51.287Z,51.15
2019-03-30T06:40:23.135Z,51.83
2019-03-30T06:42:57.336Z,52.90
2019-03-30T06:45:29.120Z,48.05
2019-03-30T06:48:00.917Z,53.70
2019-03-30T06:50:32.637Z,45.43
2019-03-30T06:53:04.482Z,56.23
2019-03-30T06:55:36.252Z,54.23
2019-03-30T06:58:08.497Z,58.83
2019-03-30T07:00:41.006Z,56.73
2019-03-30T07:03:12.812Z,54.83
2019-03-30T07:05:44.996Z,55.70
2019-03-30T07:10:14.643Z,60.88
2019-03-30T07:12:49.931Z,58.33
2019-03-30T07:15:21.743Z,62.85
2019-03-30T07:17:55.525Z,59.42
2019-03-30T07:20:32.607Z,56.25
2019-03-30T07:23:11.881Z,56.98
2019-03-30T07:25:37.975Z,55.78
2019-03-30T07:28:09.784Z,54.20
2019-03-30T07:30:41.589Z,51.60
2019-03-30T07:33:13.345Z,56.02
2019-03-30T07:35:45.162Z,56.75
2019-03-30T07:38:16.963Z,52.50
2019-03-30T07:40:48.790Z,53.58
2019-03-30T07:43:20.886Z,54.95
2019-03-30T07:45:52.766Z,52.98
2019-03-30T07:48:24.660Z,54.80
2019-03-30T07:50:57.506Z,54.88
2019-03-30T07:53:43.589Z,56.75
2019-03-30T07:56:08.627Z,59.15
2019-03-30T07:58:37.589Z,58.33
2019-03-30T08:01:09.389Z,58.13
2019-03-30T08:03:41.333Z,57.10
2019-03-30T08:06:16.444Z,46.63
2019-03-30T08:08:48.693Z,58.98
2019-03-30T08:11:21.095Z,60.33
2019-03-30T08:13:53.281Z,57.43
2019-03-30T08:16:25.223Z,64.53
2019-03-30T08:18:57.336Z,62.55
2019-03-30T08:21:29.217Z,57.78
2019-03-30T08:24:01.045Z,58.98
2019-03-30T08:26:35.647Z,62.20
2019-03-30T08:29:07.003Z,44.58
2019-03-30T08:31:39.415Z,33.73
2019-03-30T08:34:11.462Z,30.52
2019-03-30T08:36:43.320Z,52.05
2019-03-30T08:39:15.167Z,48.35
2019-03-30T08:41:46.934Z,52.20
2019-03-30T08:44:18.770Z,57.73
2019-03-30T08:46:51.053Z,52.55
2019-03-30T08:49:22.882Z,55.92
2019-03-30T08:51:54.793Z,44.25
2019-03-30T08:54:26.654Z,48.02
2019-03-30T08:56:58.689Z,53.10
2019-03-30T08:59:30.809Z,41.42
2019-03-30T09:02:02.715Z,52.23
2019-03-30T09:04:36.372Z,53.38
2019-03-30T09:07:08.472Z,52.13
2019-03-30T09:09:40.281Z,48.38
2019-03-30T09:12:13.253Z,46.48
2019-03-30T09:14:45.040Z,49.35
2019-03-30T09:17:16.971Z,30.52
2019-03-30T09:19:49.207Z,49.20
2019-03-30T09:22:21.532Z,44.48
2019-03-30T09:24:53.767Z,44.50
2019-03-30T09:27:29.140Z,37.45
2019-03-30T09:30:01.583Z,49.33
2019-03-30T09:32:34.072Z,48.52
2019-03-30T09:35:06.344Z,44.63
2019-03-30T09:37:38.271Z,44.60
2019-03-30T09:40:10.517Z,44.13
2019-03-30T09:42:42.380Z,44.83
2019-03-30T09:45:17.392Z,32.70
2019-03-30T09:47:49.214Z,47.25
2019-03-30T09:50:21.178Z,35.38
2019-03-30T09:52:52.995Z,29.25
2019-03-30T09:55:27.178Z,43.92
2019-03-30T09:57:58.702Z,37.70
2019-03-30T10:00:30.619Z,44.40
2019-03-30T10:03:09.877Z,38.15
2019-03-30T10:05:42.654Z,33.55
2019-03-30T10:08:14.685Z,39.45
2019-03-30T10:10:46.599Z,36.68
2019-03-30T10:13:18.577Z,28.62
2019-03-30T10:15:50.566Z,35.23
2019-03-30T10:18:22.411Z,32.45
2019-03-30T10:20:54.412Z,37.33
2019-03-30T10:23:26.261Z,32.50
2019-03-30T10:25:58.856Z,35.03
2019-03-30T10:28:30.830Z,42.00
2019-03-30T10:31:02.954Z,38.40
2019-03-30T10:33:35.595Z,42.95
2019-03-30T10:36:07.386Z,39.48
2019-03-30T10:38:39.428Z,42.08
2019-03-30T10:41:11.334Z,37.53
2019-03-30T10:43:43.133Z,37.78
2019-03-30T10:46:15.007Z,37.90
2019-03-30T10:48:47.119Z,42.83
2019-03-30T10:51:18.962Z,31.95
2019-03-30T10:53:50.838Z,41.83
2019-03-30T10:56:22.734Z,43.23
2019-03-30T10:58:54.594Z,27.13
2019-03-30T11:01:26.487Z,41.37
2019-03-30T11:03:58.476Z,44.63
2019-03-30T11:06:30.731Z,37.20
2019-03-30T11:09:02.814Z,45.03
2019-03-30T11:11:36.761Z,40.35
2019-03-30T11:14:08.680Z,43.05
2019-03-30T11:16:42.013Z,47.53
2019-03-30T11:19:13.724Z,42.50
2019-03-30T11:21:45.692Z,41.75
2019-03-30T11:24:17.597Z,40.15
2019-03-30T11:26:49.424Z,30.60
2019-03-30T11:29:21.196Z,37.00
2019-03-30T11:31:52.982Z,38.60
2019-03-30T11:34:25.344Z,39.83
2019-03-30T11:36:57.353Z,52.60
2019-03-30T11:39:29.210Z,39.00
2019-03-30T11:42:00.992Z,33.75
2019-03-30T11:44:32.984Z,32.48
2019-03-30T11:47:04.856Z,33.38
2019-03-30T11:49:36.667Z,32.10
2019-03-30T11:52:08.363Z,34.20
2019-03-30T11:54:40.223Z,29.95
2019-03-30T11:57:12.945Z,28.12
2019-03-30T11:59:44.811Z,29.92
2019-03-30T12:02:27.396Z,37.60
2019-03-30T12:04:51.283Z,36.03
2019-03-30T12:07:23.445Z,28.92
2019-03-30T12:09:55.715Z,41.65
2019-03-30T12:12:27.525Z,40.48
2019-03-30T12:14:59.710Z,38.38
2019-03-30T12:17:31.447Z,36.53
2019-03-30T12:22:55.455Z,38.02
2019-03-30T12:25:35.603Z,38.58
2019-03-30T12:28:02.122Z,38.00
2019-03-30T12:30:34.123Z,27.77
2019-03-30T12:33:07.057Z,32.67
2019-03-30T12:35:38.994Z,35.60
2019-03-30T12:38:10.980Z,30.45
2019-03-30T12:40:43.499Z,37.05
2019-03-30T12:43:15.355Z,28.47
2019-03-30T12:45:48.241Z,36.73
2019-03-30T12:48:20.507Z,40.50
2019-03-30T12:50:52.510Z,39.42
2019-03-30T12:53:24.500Z,37.23
2019-03-30T12:55:56.277Z,33.15
2019-03-30T12:58:28.369Z,33.25
2019-03-30T13:01:00.539Z,31.73
2019-03-30T13:03:32.498Z,36.68
2019-03-30T13:06:04.699Z,37.28
2019-03-30T13:08:36.965Z,33.53
2019-03-30T13:11:09.648Z,39.98
2019-03-30T13:13:42.073Z,27.42
2019-03-30T13:16:14.179Z,36.42
2019-03-30T13:18:49.071Z,32.13
2019-03-30T13:21:22.546Z,36.03
2019-03-30T13:23:56.835Z,33.83
2019-03-30T13:26:30.357Z,31.95
2019-03-30T13:29:02.167Z,34.67
2019-03-30T13:31:37.180Z,33.38
2019-03-30T13:34:09.171Z,33.25
2019-03-30T13:36:44.387Z,31.37
2019-03-30T13:39:17.525Z,33.60
2019-03-30T13:41:49.269Z,32.73
2019-03-30T13:44:24.148Z,29.67
2019-03-30T13:46:56.045Z,23.18
2019-03-30T13:49:29.809Z,28.40
2019-03-30T13:52:01.686Z,32.53
2019-03-30T13:54:33.629Z,28.55
2019-03-30T13:57:06.012Z,25.70
2019-03-30T13:59:38.587Z,27.05
2019-03-30T14:02:10.456Z,21.35
2019-03-30T14:04:42.242Z,23.02
2019-03-30T14:07:15.670Z,29.40
2019-03-30T14:09:47.468Z,28.90
2019-03-30T14:12:19.596Z,26.60
2019-03-30T14:14:51.399Z,30.55
2019-03-30T14:17:23.171Z,27.62
2019-03-30T14:19:54.957Z,31.48
2019-03-30T14:22:26.694Z,30.12
2019-03-30T14:24:58.462Z,26.37
2019-03-30T14:27:30.218Z,25.17
2019-03-30T14:30:02.003Z,23.20
2019-03-30T14:32:33.730Z,25.70
2019-03-30T14:35:05.559Z,23.18
2019-03-30T14:37:38.413Z,26.10
2019-03-30T14:40:10.607Z,24.32
2019-03-30T14:42:42.834Z,27.30
2019-03-30T14:45:14.730Z,27.95
2019-03-30T14:47:48.331Z,26.37
2019-03-30T14:50:20.769Z,25.97
2019-03-30T14:52:52.565Z,28.92
2019-03-30T14:55:24.697Z,31.50
2019-03-30T14:57:56.443Z,30.77
2019-03-30T15:00:28.646Z,29.70
2019-03-30T15:03:00.489Z,28.90
2019-03-30T15:05:32.653Z,31.77
2019-03-30T15:08:04.477Z,24.50
2019-03-30T15:10:36.178Z,25.08
2019-03-30T15:13:07.993Z,28.35
2019-03-30T15:15:40.062Z,35.00
2019-03-30T15:18:12.139Z,30.55
2019-03-30T15:20:44.111Z,30.60
2019-03-30T15:23:15.837Z,21.50
2019-03-30T15:25:47.682Z,31.30
2019-03-30T15:28:21.147Z,17.12
2019-03-30T15:30:52.989Z,26.33
2019-03-30T15:33:24.733Z,27.60
2019-03-30T15:35:57.681Z,35.10
2019-03-30T15:38:30.348Z,28.35
2019-03-30T15:41:02.224Z,33.80
2019-03-30T15:43:38.461Z,22.13
2019-03-30T15:46:07.576Z,24.12
2019-03-30T15:48:39.392Z,28.40
2019-03-30T15:51:11.448Z,31.85
2019-03-30T15:53:43.206Z,31.62
2019-03-30T15:56:15.583Z,29.15
2019-03-30T15:58:50.125Z,35.43
2019-03-30T16:01:22.499Z,34.25
2019-03-30T16:03:56.898Z,27.93
2019-03-30T16:06:28.788Z,18.82
2019-03-30T16:09:00.999Z,35.85
2019-03-30T16:11:35.249Z,32.70
2019-03-30T16:14:08.472Z,25.65
2019-03-30T16:16:40.318Z,28.15
2019-03-30T16:19:12.071Z,35.65
2019-03-30T16:21:44.318Z,38.75
2019-03-30T16:24:16.100Z,36.38
2019-03-30T16:26:47.913Z,36.30
2019-03-30T16:29:20.583Z,38.25
2019-03-30T16:31:53.320Z,42.13
2019-03-30T16:34:26.908Z,39.92
2019-03-30T16:36:59.351Z,33.63
2019-03-30T16:39:34.798Z,40.58
2019-03-30T16:42:06.134Z,40.78
2019-03-30T16:44:38.874Z,34.08
2019-03-30T16:47:10.866Z,39.55
2019-03-30T16:49:43.059Z,44.65
2019-03-30T16:52:15.045Z,45.17
2019-03-30T16:54:47.132Z,41.70
2019-03-30T16:57:19.436Z,47.35
2019-03-30T16:59:51.251Z,50.38
2019-03-30T17:02:23.012Z,51.83
2019-03-30T17:04:57.666Z,53.00
2019-03-30T17:07:29.838Z,48.73
2019-03-30T17:10:01.665Z,57.95
2019-03-30T17:12:33.430Z,60.25
2019-03-30T17:15:05.636Z,54.13
2019-03-30T17:17:37.407Z,66.60
2019-03-30T17:20:10.311Z,67.45
2019-03-30T17:22:43.457Z,69.60
2019-03-30T17:25:15.343Z,74.47
2019-03-30T17:27:58.264Z,51.30
2019-03-30T17:30:20.748Z,68.95
2019-03-30T17:32:53.248Z,80.67
2019-03-30T17:35:25.207Z,86.37
2019-03-30T17:37:57.379Z,79.53
2019-03-30T17:40:29.189Z,86.20
2019-03-30T17:43:00.953Z,89.40
2019-03-30T17:45:35.308Z,74.15
2019-03-30T17:48:07.170Z,88.33
2019-03-30T17:50:38.954Z,91.95
2019-03-30T17:53:13.426Z,84.17
2019-03-30T17:55:45.247Z,74.27
2019-03-30T17:58:18.129Z,85.60
2019-03-30T18:00:50.086Z,76.80
2019-03-30T18:03:22.078Z,60.83
2019-03-30T18:05:53.851Z,75.75
2019-03-30T18:08:26.279Z,72.75
2019-03-30T18:10:58.471Z,85.38
2019-03-30T18:13:30.273Z,75.22
2019-03-30T18:16:02.112Z,63.45
2019-03-30T18:18:34.434Z,73.78
2019-03-30T18:21:06.367Z,80.38
2019-03-30T18:23:40.963Z,78.83
2019-03-30T18:26:12.931Z,70.83
2019-03-30T18:28:45.667Z,67.78
2019-03-30T18:31:18.105Z,82.30
2019-03-30T18:33:50.399Z,67.08
2019-03-30T18:36:22.619Z,76.77
2019-03-30T18:39:08.864Z,68.62
2019-03-30T18:41:30.363Z,57.98
2019-03-30T18:44:03.721Z,72.92
2019-03-30T18:46:35.602Z,67.58
2019-03-30T18:49:07.445Z,60.40
2019-03-30T18:51:41.722Z,67.72
2019-03-30T18:54:13.701Z,66.30
2019-03-30T18:56:45.529Z,69.92
2019-03-30T18:59:17.373Z,65.28
2019-03-30T19:01:49.150Z,69.10
2019-03-30T19:04:21.023Z,64.35
2019-03-30T19:06:55.255Z,66.50
2019-03-30T19:09:26.827Z,65.70
2019-03-30T19:11:58.664Z,57.08
2019-03-30T19:14:30.582Z,69.27
2019-03-30T19:17:03.580Z,68.35
2019-03-30T19:19:35.492Z,66.25
2019-03-30T19:22:08.413Z,71.25
2019-03-30T19:24:40.664Z,68.37
2019-03-30T19:27:12.456Z,64.25
2019-03-30T19:29:44.697Z,62.70
2019-03-30T19:32:16.488Z,90.47
2019-03-30T19:34:48.614Z,66.57
2019-03-30T19:37:20.606Z,65.00
2019-03-30T19:39:53.094Z,61.50
2019-03-30T19:42:25.215Z,65.17
2019-03-30T19:44:57.511Z,74.50
2019-03-30T19:47:30.892Z,66.35
2019-03-30T19:50:03.202Z,64.35
2019-03-30T19:52:39.985Z,66.72
2019-03-30T19:55:09.833Z,67.40
2019-03-30T19:57:41.918Z,69.35
2019-03-30T20:00:14.460Z,69.25
2019-03-30T20:02:46.445Z,61.73
2019-03-30T20:05:18.440Z,69.42
2019-03-30T20:07:50.314Z,65.80
2019-03-30T20:10:22.150Z,66.95
2019-03-30T20:12:53.933Z,70.40
2019-03-30T20:15:26.241Z,74.85
2019-03-30T20:17:58.746Z,63.75
2019-03-30T20:20:30.509Z,71.07
2019-03-30T20:23:02.304Z,65.95
2019-03-30T20:25:34.172Z,67.75
2019-03-30T20:28:05.880Z,69.17
2019-03-30T20:30:37.686Z,69.85
2019-03-30T20:33:10.179Z,80.75
2019-03-30T20:35:41.917Z,68.45
2019-03-30T20:38:13.758Z,72.65
2019-03-30T20:40:45.566Z,67.65
2019-03-30T20:43:17.286Z,67.47
2019-03-30T20:45:49.028Z,69.82
2019-03-30T20:48:20.736Z,33.67
2019-03-30T20:50:52.680Z,73.20
2019-03-30T20:53:24.601Z,76.60
2019-03-30T20:55:56.438Z,50.43
2019-03-30T20:58:28.325Z,65.45
2019-03-30T21:01:00.542Z,69.00
2019-03-30T21:03:32.632Z,69.92
2019-03-30T21:06:04.760Z,37.17
2019-03-30T21:08:36.630Z,73.50
2019-03-30T21:11:08.423Z,68.57
2019-03-30T21:13:40.206Z,60.92
2019-03-30T21:16:12.414Z,51.18
2019-03-30T21:18:44.263Z,51.02
2019-03-30T21:21:16.176Z,46.53
2019-03-30T21:23:48.123Z,60.50
2019-03-30T21:26:19.951Z,43.05
2019-03-30T21:28:52.116Z,65.80
2019-03-30T21:31:23.943Z,45.30
2019-03-30T21:33:56.809Z,58.15
2019-03-30T21:36:28.691Z,56.50
2019-03-30T21:39:00.893Z,47.78
2019-03-30T21:41:34.286Z,48.05
2019-03-30T21:44:06.199Z,26.23
2019-03-30T21:46:38.013Z,89.03
2019-03-30T21:49:09.837Z,51.55
2019-03-30T21:51:44.050Z,33.55
2019-03-30T21:54:15.849Z,36.53
2019-03-30T21:56:49.040Z,26.12
2019-03-30T21:59:20.903Z,26.48
2019-03-30T22:01:52.692Z,32.25
2019-03-30T22:04:24.827Z,26.15
2019-03-30T22:06:56.721Z,21.85
2019-03-30T22:09:29.891Z,22.50
2019-03-30T22:12:03.396Z,35.65
2019-03-30T22:14:36.308Z,28.27
2019-03-30T22:17:08.204Z,28.60
2019-03-30T22:19:40.023Z,34.83
2019-03-30T22:22:12.026Z,33.60
2019-03-30T22:24:44.057Z,25.88
2019-03-30T22:27:16.173Z,29.12
2019-03-30T22:29:48.313Z,18.82
2019-03-30T22:32:20.570Z,27.70
2019-03-30T22:34:52.485Z,32.50
2019-03-30T22:37:24.832Z,26.57
2019-03-30T22:39:56.682Z,20.08
2019-03-30T22:42:28.849Z,28.65
2019-03-30T22:45:00.685Z,28.62
2019-03-30T22:47:32.547Z,37.15
2019-03-30T22:50:04.538Z,33.70
2019-03-30T22:52:36.413Z,28.17
2019-03-30T22:55:08.370Z,26.35
2019-03-30T22:57:40.151Z,28.52
2019-03-30T23:00:22.216Z,20.10
2019-03-30T23:03:01.358Z,22.02
2019-03-30T23:05:33.444Z,26.70
2019-03-30T23:08:05.672Z,18.40
2019-03-30T23:10:37.529Z,16.17
2019-03-30T23:13:09.986Z,15.00
2019-03-30T23:15:42.304Z,19.57
2019-03-30T23:18:14.275Z,27.82
2019-03-30T23:20:47.097Z,23.50
2019-03-30T23:23:19.053Z,27.20
2019-03-30T23:25:51.953Z,21.97
2019-03-30T23:28:23.790Z,26.27
2019-03-30T23:30:55.594Z,24.45
2019-03-30T23:33:27.722Z,25.65
2019-03-30T23:35:59.805Z,9.15
2019-03-30T23:38:32.057Z,26.25
2019-03-30T23:41:03.931Z,23.20
2019-03-30T23:43:36.717Z,20.02
2019-03-30T23:48:19.749Z,23.98
2019-03-30T23:50:51.517Z,18.12
2019-03-30T23:53:23.280Z,21.05
2019-03-30T23:55:55.015Z,22.15
2019-03-30T23:58:27.083Z,21.20
